createdAt,value
2018-12-27T00:00:54.536Z,13.97
2018-12-27T00:03:23.970Z,12.40
2018-12-27T00:05:53.276Z,11.47
2018-12-27T00:08:22.657Z,12.27
2018-12-27T00:10:51.917Z,13.10
2018-12-27T00:13:21.318Z,11.33
2018-12-27T00:15:50.771Z,12.50
2018-12-27T00:18:20.325Z,12.07
2018-12-27T00:20:49.754Z,12.97
2018-12-27T00:23:19.195Z,13.50
2018-12-27T00:25:48.702Z,14.17
2018-12-27T00:28:18.102Z,12.57
2018-12-27T00:30:47.623Z,10.53
2018-12-27T00:33:17.278Z,13.03
2018-12-27T00:35:46.754Z,11.70
2018-12-27T00:38:16.262Z,11.73
2018-12-27T00:40:45.737Z,11.37
2018-12-27T00:43:15.238Z,10.73
2018-12-27T00:45:44.702Z,11.60
2018-12-27T00:48:14.396Z,11.60
2018-12-27T00:50:44.075Z,12.00
2018-12-27T00:53:13.821Z,10.57
2018-12-27T00:55:43.431Z,14.33
2018-12-27T00:58:13.152Z,12.97
2018-12-27T01:00:42.571Z,12.23
2018-12-27T01:03:12.078Z,10.60
2018-12-27T01:05:41.537Z,13.00
2018-12-27T01:08:11.298Z,12.67
2018-12-27T01:10:40.859Z,13.73
2018-12-27T01:13:10.355Z,12.30
2018-12-27T01:15:39.879Z,10.47
2018-12-27T01:18:09.523Z,9.00
2018-12-27T01:20:38.962Z,9.10
2018-12-27T01:23:08.480Z,10.20
2018-12-27T01:25:38.245Z,10.67
2018-12-27T01:28:07.851Z,9.03
2018-12-27T01:30:37.651Z,9.77
2018-12-27T01:33:07.322Z,11.07
2018-12-27T01:35:36.815Z,9.17
2018-12-27T01:38:06.475Z,10.83
2018-12-27T01:40:36.039Z,7.93
2018-12-27T01:43:05.854Z,9.43
2018-12-27T01:45:35.442Z,9.73
2018-12-27T01:48:04.867Z,10.10
2018-12-27T01:50:34.337Z,9.07
2018-12-27T01:53:03.828Z,9.50
2018-12-27T01:55:33.319Z,7.67
2018-12-27T01:58:02.749Z,9.00
2018-12-27T02:00:32.178Z,9.40
2018-12-27T02:03:01.571Z,8.80
2018-12-27T02:05:31.125Z,9.43
2018-12-27T02:08:00.686Z,7.93
2018-12-27T02:10:30.323Z,9.10
2018-12-27T02:13:00.006Z,8.90
2018-12-27T02:15:29.543Z,8.57
2018-12-27T02:17:59.185Z,10.20
2018-12-27T02:20:28.658Z,10.13
2018-12-27T02:22:58.387Z,10.23
2018-12-27T02:25:27.917Z,8.50
2018-12-27T02:27:57.413Z,7.83
2018-12-27T02:30:27.079Z,9.57
2018-12-27T02:32:56.475Z,8.50
2018-12-27T02:35:26.153Z,7.67
2018-12-27T02:37:55.799Z,8.37
2018-12-27T02:40:25.620Z,10.00
2018-12-27T02:42:55.249Z,8.40
2018-12-27T02:45:24.850Z,8.53
2018-12-27T02:47:54.421Z,8.50
2018-12-27T02:50:24.050Z,7.83
2018-12-27T02:52:53.658Z,8.53
2018-12-27T02:55:23.149Z,7.70
2018-12-27T02:57:52.796Z,8.67
2018-12-27T03:00:22.491Z,8.80
2018-12-27T03:02:52.036Z,7.63
2018-12-27T03:05:24.212Z,8.73
2018-12-27T03:07:53.684Z,8.03
2018-12-27T03:10:23.143Z,8.70
2018-12-27T03:12:52.635Z,8.80
2018-12-27T03:15:22.169Z,7.93
2018-12-27T03:17:51.796Z,8.67
2018-12-27T03:20:21.302Z,7.60
2018-12-27T03:22:50.801Z,8.40
2018-12-27T03:25:20.284Z,8.23
2018-12-27T03:27:49.720Z,7.90
2018-12-27T03:30:19.308Z,8.07
2018-12-27T03:32:48.944Z,8.43
2018-12-27T03:35:18.621Z,8.47
2018-12-27T03:37:48.263Z,9.30
2018-12-27T03:40:18.153Z,8.90
2018-12-27T03:42:47.754Z,9.37
2018-12-27T03:45:17.276Z,9.30
2018-12-27T03:47:46.721Z,9.80
2018-12-27T03:50:16.303Z,8.83
2018-12-27T03:52:46.156Z,8.97
2018-12-27T03:55:15.679Z,7.13
2018-12-27T03:57:45.466Z,7.43
2018-12-27T04:00:14.950Z,7.57
2018-12-27T04:02:44.633Z,8.13
2018-12-27T04:05:14.187Z,8.77
2018-12-27T04:07:43.611Z,7.60
2018-12-27T04:10:13.257Z,9.13
2018-12-27T04:12:43.405Z,7.20
2018-12-27T04:15:12.731Z,9.03
2018-12-27T04:17:42.471Z,9.03
2018-12-27T04:20:11.960Z,8.60
2018-12-27T04:22:41.837Z,7.70
2018-12-27T04:25:11.619Z,9.53
2018-12-27T04:27:41.101Z,8.70
2018-12-27T04:30:13.682Z,9.30
2018-12-27T04:32:44.115Z,7.77
2018-12-27T04:35:13.538Z,9.00
2018-12-27T04:37:42.823Z,8.30
2018-12-27T04:40:12.265Z,7.63
2018-12-27T04:42:41.918Z,8.13
2018-12-27T04:45:11.483Z,9.63
2018-12-27T04:47:41.159Z,9.40
2018-12-27T04:50:10.830Z,9.00
2018-12-27T04:52:42.833Z,9.00
2018-12-27T04:55:12.321Z,8.30
2018-12-27T04:57:41.862Z,8.07
2018-12-27T05:00:12.269Z,7.70
2018-12-27T05:02:43.915Z,8.27
2018-12-27T05:05:13.252Z,8.07
2018-12-27T05:07:42.783Z,8.60
2018-12-27T05:10:12.179Z,9.40
2018-12-27T05:12:41.835Z,7.53
2018-12-27T05:15:11.474Z,6.70
2018-12-27T05:17:40.974Z,7.63
2018-12-27T05:20:10.263Z,8.20
2018-12-27T05:22:39.811Z,7.77
2018-12-27T05:25:09.295Z,9.40
2018-12-27T05:27:38.819Z,8.33
2018-12-27T05:30:08.239Z,7.80
2018-12-27T05:32:37.582Z,6.70
2018-12-27T05:35:06.912Z,7.23
2018-12-27T05:37:36.186Z,8.30
2018-12-27T05:40:05.871Z,8.90
2018-12-27T05:42:35.366Z,7.40
2018-12-27T05:45:04.696Z,9.27
2018-12-27T05:47:34.307Z,7.37
2018-12-27T05:50:03.573Z,6.90
2018-12-27T05:52:37.286Z,8.60
2018-12-27T05:55:06.538Z,6.63
2018-12-27T05:57:39.331Z,7.13
2018-12-27T06:00:08.088Z,6.70
2018-12-27T06:02:37.896Z,6.57
2018-12-27T06:05:07.117Z,6.03
2018-12-27T06:07:37.415Z,5.77
2018-12-27T06:10:06.803Z,6.20
2018-12-27T06:12:36.366Z,7.60
2018-12-27T06:15:05.892Z,7.00
2018-12-27T06:17:36.307Z,8.00
2018-12-27T06:20:14.111Z,7.87
2018-12-27T06:22:46.358Z,8.07
2018-12-27T06:25:15.895Z,8.03
2018-12-27T06:27:45.361Z,9.00
2018-12-27T06:30:14.653Z,8.77
2018-12-27T06:32:45.415Z,8.40
2018-12-27T06:35:14.819Z,6.57
2018-12-27T06:37:44.175Z,8.23
2018-12-27T06:40:13.548Z,8.27
2018-12-27T06:42:43.276Z,8.03
2018-12-27T06:45:12.759Z,7.80
2018-12-27T06:47:42.379Z,6.70
2018-12-27T06:50:11.827Z,6.90
2018-12-27T06:52:41.509Z,7.70
2018-12-27T06:55:10.841Z,6.70
2018-12-27T06:57:40.289Z,5.90
2018-12-27T07:00:09.829Z,7.20
2018-12-27T07:02:39.207Z,7.20
2018-12-27T07:05:08.822Z,7.40
2018-12-27T07:07:38.078Z,6.90
2018-12-27T07:10:14.100Z,7.83
2018-12-27T07:12:43.591Z,8.20
2018-12-27T07:15:15.943Z,7.50
2018-12-27T07:17:45.312Z,6.67
2018-12-27T07:20:14.708Z,7.60
2018-12-27T07:22:44.348Z,7.13
2018-12-27T07:25:13.863Z,6.47
2018-12-27T07:27:43.334Z,6.83
2018-12-27T07:30:12.775Z,7.13
2018-12-27T07:32:42.323Z,6.97
2018-12-27T07:35:11.915Z,7.30
2018-12-27T07:37:41.323Z,7.77
2018-12-27T07:40:10.724Z,6.90
2018-12-27T07:42:40.143Z,6.17
2018-12-27T07:45:09.788Z,5.80
2018-12-27T07:47:39.198Z,7.40
2018-12-27T07:50:08.651Z,6.17
2018-12-27T07:52:41.151Z,5.40
2018-12-27T07:55:14.725Z,4.80
2018-12-27T07:57:44.806Z,5.60
2018-12-27T08:00:14.347Z,4.70
2018-12-27T08:02:44.026Z,4.80
2018-12-27T08:05:13.832Z,4.77
2018-12-27T08:07:43.354Z,5.00
2018-12-27T08:10:12.951Z,4.33
2018-12-27T08:12:42.508Z,5.93
2018-12-27T08:15:12.155Z,6.73
2018-12-27T08:17:41.491Z,5.97
2018-12-27T08:20:10.902Z,6.70
2018-12-27T08:22:40.199Z,5.70
2018-12-27T08:25:09.769Z,6.00
2018-12-27T08:27:39.264Z,6.47
2018-12-27T08:30:09.199Z,6.47
2018-12-27T08:32:38.512Z,7.20
2018-12-27T08:35:11.455Z,6.43
2018-12-27T08:37:38.886Z,6.70
2018-12-27T08:40:08.171Z,6.30
2018-12-27T08:42:43.161Z,5.70
2018-12-27T08:45:12.630Z,6.23
2018-12-27T08:47:42.041Z,6.47
2018-12-27T08:50:11.955Z,7.13
2018-12-27T08:52:41.371Z,11.67
2018-12-27T08:55:10.816Z,8.73
2018-12-27T08:57:40.215Z,8.13
2018-12-27T09:00:09.750Z,7.00
2018-12-27T09:02:39.062Z,6.73
2018-12-27T09:05:08.408Z,6.87
2018-12-27T09:07:37.739Z,7.30
2018-12-27T09:10:07.320Z,6.70
2018-12-27T09:12:36.805Z,10.97
2018-12-27T09:15:06.361Z,9.50
2018-12-27T09:17:36.027Z,10.73
2018-12-27T09:20:06.248Z,6.93
2018-12-27T09:22:35.763Z,7.33
2018-12-27T09:25:05.422Z,6.47
2018-12-27T09:27:35.228Z,8.03
2018-12-27T09:30:05.024Z,7.77
2018-12-27T09:32:36.484Z,9.30
2018-12-27T09:35:05.851Z,7.07
2018-12-27T09:37:35.220Z,7.70
2018-12-27T09:40:04.943Z,7.80
2018-12-27T09:42:34.412Z,7.30
2018-12-27T09:45:03.886Z,7.20
2018-12-27T09:47:33.171Z,6.73
2018-12-27T09:50:02.467Z,8.00
2018-12-27T09:52:31.806Z,7.70
2018-12-27T09:55:01.943Z,6.57
2018-12-27T09:57:31.435Z,7.10
2018-12-27T10:00:01.923Z,8.67
2018-12-27T10:02:31.328Z,9.43
2018-12-27T10:05:00.691Z,8.07
2018-12-27T10:07:31.370Z,9.20
2018-12-27T10:10:04.019Z,9.57
2018-12-27T10:12:33.426Z,10.87
2018-12-27T10:15:02.759Z,12.30
2018-12-27T10:17:32.061Z,12.60
2018-12-27T10:20:01.377Z,12.50
2018-12-27T10:22:30.847Z,20.90
2018-12-27T10:25:00.214Z,17.63
2018-12-27T10:27:29.577Z,8.00
2018-12-27T10:29:59.076Z,7.10
2018-12-27T10:32:28.409Z,7.47
2018-12-27T10:34:57.887Z,7.00
2018-12-27T10:37:27.245Z,7.60
2018-12-27T10:39:56.521Z,7.97
2018-12-27T10:42:25.915Z,6.93
2018-12-27T10:44:55.321Z,6.60
2018-12-27T10:47:24.798Z,7.30
2018-12-27T10:49:54.173Z,8.30
2018-12-27T10:52:24.725Z,8.27
2018-12-27T10:54:54.475Z,8.63
2018-12-27T10:57:23.968Z,8.20
2018-12-27T10:59:53.314Z,9.13
2018-12-27T11:02:22.651Z,8.50
2018-12-27T11:04:52.090Z,9.23
2018-12-27T11:07:21.457Z,9.93
2018-12-27T11:09:50.961Z,10.23
2018-12-27T11:12:20.367Z,11.10
2018-12-27T11:14:49.879Z,10.80
2018-12-27T11:17:23.196Z,20.57
2018-12-27T11:19:52.533Z,15.47
2018-12-27T11:22:21.970Z,10.10
2018-12-27T11:24:51.323Z,11.37
2018-12-27T11:27:20.647Z,10.00
2018-12-27T11:29:50.068Z,10.60
2018-12-27T11:32:19.528Z,9.00
2018-12-27T11:34:48.968Z,9.37
2018-12-27T11:37:18.317Z,10.93
2018-12-27T11:39:47.767Z,10.73
2018-12-27T11:42:17.269Z,12.33
2018-12-27T11:44:46.788Z,15.13
2018-12-27T11:47:16.120Z,14.30
2018-12-27T11:49:45.516Z,13.43
2018-12-27T11:52:14.972Z,12.23
2018-12-27T11:54:44.366Z,15.30
2018-12-27T11:57:16.380Z,13.77
2018-12-27T11:59:45.826Z,14.57
2018-12-27T12:02:15.177Z,14.27
2018-12-27T12:04:44.610Z,13.70
2018-12-27T12:07:14.017Z,13.80
2018-12-27T12:09:43.293Z,15.47
2018-12-27T12:12:12.658Z,15.70
2018-12-27T12:14:42.079Z,15.00
2018-12-27T12:17:11.500Z,17.87
2018-12-27T12:19:40.883Z,16.97
2018-12-27T12:22:10.288Z,15.30
2018-12-27T12:24:39.865Z,16.30
2018-12-27T12:27:09.390Z,16.20
2018-12-27T12:29:39.059Z,17.50
2018-12-27T12:32:08.385Z,15.37
2018-12-27T12:34:39.034Z,15.97
2018-12-27T12:37:13.910Z,17.73
2018-12-27T12:39:39.604Z,18.23
2018-12-27T12:42:32.956Z,16.23
2018-12-27T12:44:58.901Z,15.97
2018-12-27T12:47:28.421Z,16.47
2018-12-27T12:49:57.662Z,17.70
2018-12-27T12:52:26.890Z,16.10
2018-12-27T12:54:56.162Z,14.93
2018-12-27T12:57:25.410Z,15.53
2018-12-27T12:59:54.702Z,16.30
2018-12-27T13:02:24.019Z,15.03
2018-12-27T13:04:53.274Z,17.07
2018-12-27T13:07:22.534Z,16.30
2018-12-27T13:09:51.790Z,17.87
2018-12-27T13:12:21.090Z,17.50
2018-12-27T13:14:50.359Z,17.30
2018-12-27T13:17:19.774Z,16.10
2018-12-27T13:19:49.174Z,16.83
2018-12-27T13:22:18.452Z,17.70
2018-12-27T13:24:47.859Z,17.20
2018-12-27T13:27:18.063Z,17.40
2018-12-27T13:29:47.268Z,17.20
2018-12-27T13:32:16.602Z,19.00
2018-12-27T13:34:46.036Z,19.17
2018-12-27T13:37:15.426Z,20.53
2018-12-27T13:39:44.780Z,18.73
2018-12-27T13:42:14.085Z,18.90
2018-12-27T13:44:44.157Z,19.27
2018-12-27T13:47:13.396Z,19.83
2018-12-27T13:49:42.819Z,21.60
2018-12-27T13:52:12.173Z,18.47
2018-12-27T13:54:41.465Z,20.83
2018-12-27T13:57:11.012Z,19.23
2018-12-27T13:59:40.383Z,20.63
2018-12-27T14:02:09.763Z,17.70
2018-12-27T14:04:47.590Z,19.80
2018-12-27T14:07:33.678Z,19.67
2018-12-27T14:10:03.219Z,17.93
2018-12-27T14:12:32.453Z,17.97
2018-12-27T14:15:01.753Z,19.47
2018-12-27T14:17:31.015Z,20.50
2018-12-27T14:20:00.315Z,19.37
2018-12-27T14:22:29.646Z,18.00
2018-12-27T14:24:58.939Z,17.00
2018-12-27T14:27:28.218Z,18.57
2018-12-27T14:29:57.480Z,17.40
2018-12-27T14:32:26.641Z,17.70
2018-12-27T14:34:56.172Z,22.33
2018-12-27T14:37:25.577Z,18.93
2018-12-27T14:39:54.828Z,18.93
2018-12-27T14:42:24.148Z,19.13
2018-12-27T14:44:54.067Z,20.00
2018-12-27T14:47:23.433Z,18.23
2018-12-27T14:49:52.699Z,19.90
2018-12-27T14:52:21.945Z,20.63
2018-12-27T14:54:51.189Z,18.47
2018-12-27T14:57:20.420Z,17.80
2018-12-27T14:59:49.686Z,19.40
2018-12-27T15:02:18.926Z,18.50
2018-12-27T15:04:48.149Z,19.33
2018-12-27T15:07:17.739Z,18.80
2018-12-27T15:09:46.957Z,20.23
2018-12-27T15:12:16.226Z,20.13
2018-12-27T15:14:45.502Z,18.50
2018-12-27T15:17:15.625Z,20.40
2018-12-27T15:19:45.045Z,20.90
2018-12-27T15:22:14.391Z,19.10
2018-12-27T15:24:43.711Z,20.27
2018-12-27T15:27:12.966Z,19.40
2018-12-27T15:29:42.630Z,18.13
2018-12-27T15:32:11.890Z,18.63
2018-12-27T15:34:41.098Z,19.10
2018-12-27T15:37:10.429Z,17.83
2018-12-27T15:39:39.718Z,18.37
2018-12-27T15:42:09.013Z,20.97
2018-12-27T15:44:38.299Z,17.03
2018-12-27T15:47:07.490Z,18.60
2018-12-27T15:49:36.786Z,20.47
2018-12-27T15:52:06.015Z,20.43
2018-12-27T15:54:35.302Z,20.63
2018-12-27T15:57:04.561Z,18.40
2018-12-27T15:59:33.755Z,17.00
2018-12-27T16:02:03.017Z,19.00
2018-12-27T16:04:32.289Z,19.20
2018-12-27T16:07:02.200Z,19.53
2018-12-27T16:09:31.679Z,18.57
2018-12-27T16:12:01.006Z,20.17
2018-12-27T16:14:30.287Z,19.10
2018-12-27T16:16:59.721Z,19.00
2018-12-27T16:19:29.050Z,19.67
2018-12-27T16:21:58.309Z,22.20
2018-12-27T16:24:27.593Z,18.50
2018-12-27T16:26:56.899Z,20.10
2018-12-27T16:29:26.272Z,19.60
2018-12-27T16:31:55.575Z,20.13
2018-12-27T16:34:24.950Z,20.47
2018-12-27T16:36:54.138Z,21.50
2018-12-27T16:39:23.435Z,19.10
2018-12-27T16:41:52.809Z,21.70
2018-12-27T16:44:22.223Z,20.20
2018-12-27T16:46:51.548Z,20.60
2018-12-27T16:49:30.977Z,20.17
2018-12-27T16:52:00.232Z,20.53
2018-12-27T16:54:29.609Z,22.23
2018-12-27T16:56:58.882Z,19.87
2018-12-27T16:59:28.170Z,18.70
2018-12-27T17:01:57.344Z,21.43
2018-12-27T17:04:26.573Z,20.13
2018-12-27T17:06:55.876Z,21.97
2018-12-27T17:09:25.218Z,23.63
2018-12-27T17:11:54.547Z,22.70
2018-12-27T17:14:23.876Z,21.93
2018-12-27T17:16:53.186Z,22.30
2018-12-27T17:19:22.445Z,20.57
2018-12-27T17:21:51.672Z,21.17
2018-12-27T17:24:20.962Z,22.83
2018-12-27T17:26:50.253Z,21.10
2018-12-27T17:29:19.534Z,20.57
2018-12-27T17:31:49.350Z,20.83
2018-12-27T17:34:19.515Z,19.70
2018-12-27T17:36:49.091Z,21.40
2018-12-27T17:39:18.646Z,24.30
2018-12-27T17:41:48.005Z,23.00
2018-12-27T17:44:17.297Z,24.00
2018-12-27T17:46:46.592Z,25.63
2018-12-27T17:49:16.974Z,24.90
2018-12-27T17:51:46.402Z,26.13
2018-12-27T17:54:15.683Z,25.47
2018-12-27T17:56:44.923Z,28.47
2018-12-27T17:59:14.109Z,25.47
2018-12-27T18:01:43.388Z,25.57
2018-12-27T18:04:12.670Z,25.43
2018-12-27T18:06:42.143Z,24.70
2018-12-27T18:09:11.569Z,23.57
2018-12-27T18:11:41.068Z,22.77
2018-12-27T18:14:10.607Z,21.70
2018-12-27T18:16:40.068Z,19.27
2018-12-27T18:19:09.708Z,20.83
2018-12-27T18:21:39.216Z,22.27
2018-12-27T18:24:08.864Z,23.30
2018-12-27T18:26:38.252Z,24.50
2018-12-27T18:29:07.863Z,23.03
2018-12-27T18:31:37.605Z,22.57
2018-12-27T18:34:07.098Z,22.13
2018-12-27T18:36:36.712Z,23.50
2018-12-27T18:39:07.884Z,20.80
2018-12-27T18:41:37.428Z,20.67
2018-12-27T18:44:06.998Z,20.73
2018-12-27T18:46:36.491Z,20.93
2018-12-27T18:49:07.183Z,19.00
2018-12-27T18:51:37.027Z,19.47
2018-12-27T18:54:07.353Z,23.80
2018-12-27T18:56:37.887Z,20.93
2018-12-27T18:59:08.243Z,21.23
2018-12-27T19:01:41.998Z,21.80
2018-12-27T19:04:11.407Z,19.93
2018-12-27T19:06:40.946Z,19.37
2018-12-27T19:09:10.462Z,22.57
2018-12-27T19:12:15.881Z,23.20
2018-12-27T19:15:00.146Z,22.00
2018-12-27T19:17:34.893Z,22.73
2018-12-27T19:20:04.291Z,20.40
2018-12-27T19:22:51.351Z,23.10
2018-12-27T19:25:20.613Z,24.27
2018-12-27T19:27:49.978Z,19.23
2018-12-27T19:30:19.177Z,23.10
2018-12-27T19:32:48.482Z,21.83
2018-12-27T19:35:17.966Z,20.17
2018-12-27T19:37:52.062Z,20.90
2018-12-27T19:40:18.356Z,22.87
2018-12-27T19:42:47.533Z,21.20
2018-12-27T19:45:16.789Z,21.43
2018-12-27T19:47:46.004Z,24.37
2018-12-27T19:50:15.243Z,25.33
2018-12-27T19:52:44.537Z,23.20
2018-12-27T19:55:13.831Z,24.33
2018-12-27T19:57:43.096Z,23.87
2018-12-27T20:00:12.469Z,22.10
2018-12-27T20:02:41.748Z,25.53
2018-12-27T20:05:11.169Z,23.80
2018-12-27T20:07:40.400Z,23.27
2018-12-27T20:10:09.647Z,23.87
2018-12-27T20:12:39.179Z,24.63
2018-12-27T20:15:08.931Z,24.00
2018-12-27T20:17:38.853Z,25.33
2018-12-27T20:20:09.233Z,26.03
2018-12-27T20:22:38.863Z,26.03
2018-12-27T20:25:09.503Z,23.07
2018-12-27T20:27:39.130Z,26.97
2018-12-27T20:30:09.715Z,21.80
2018-12-27T20:32:39.334Z,23.23
2018-12-27T20:35:08.851Z,23.67
2018-12-27T20:37:38.426Z,21.13
2018-12-27T20:40:08.055Z,24.87
2018-12-27T20:42:37.802Z,22.67
2018-12-27T20:45:07.478Z,22.90
2018-12-27T20:47:37.286Z,24.00
2018-12-27T20:50:07.277Z,24.90
2018-12-27T20:56:26.871Z,24.80
2018-12-27T20:58:56.542Z,24.50
2018-12-27T21:01:26.088Z,25.67
2018-12-27T21:03:55.838Z,26.10
2018-12-27T21:06:25.539Z,24.07
2018-12-27T21:08:55.004Z,23.57
2018-12-27T21:11:24.716Z,22.70
2018-12-27T21:13:54.325Z,26.83
2018-12-27T21:16:23.871Z,26.23
2018-12-27T21:18:53.507Z,26.27
2018-12-27T21:21:24.849Z,25.07
2018-12-27T21:23:54.445Z,20.07
2018-12-27T21:26:24.402Z,21.00
2018-12-27T21:28:53.890Z,19.57
2018-12-27T21:31:23.250Z,22.40
2018-12-27T21:33:53.692Z,20.63
2018-12-27T21:36:23.294Z,19.47
2018-12-27T21:38:53.347Z,18.77
2018-12-27T21:41:23.156Z,20.80
2018-12-27T21:43:52.936Z,21.03
2018-12-27T21:46:22.097Z,22.73
2018-12-27T21:48:51.396Z,22.23
2018-12-27T21:51:20.669Z,19.67
2018-12-27T21:53:49.979Z,20.00
2018-12-27T21:56:19.282Z,21.40
2018-12-27T21:58:48.566Z,19.93
2018-12-27T22:01:17.837Z,16.93
2018-12-27T22:03:47.085Z,21.47
2018-12-27T22:06:16.324Z,20.37
2018-12-27T22:08:45.590Z,17.80
2018-12-27T22:11:14.897Z,18.50
2018-12-27T22:13:44.870Z,17.60
2018-12-27T22:16:14.125Z,17.40
2018-12-27T22:18:43.429Z,18.67
2018-12-27T22:21:12.702Z,19.70
2018-12-27T22:23:42.005Z,18.93
2018-12-27T22:26:11.240Z,15.57
2018-12-27T22:28:40.684Z,15.67
2018-12-27T22:31:09.965Z,15.10
2018-12-27T22:33:39.261Z,14.60
2018-12-27T22:36:08.408Z,17.67
2018-12-27T22:38:37.666Z,19.97
2018-12-27T22:41:06.851Z,22.30
2018-12-27T22:43:36.088Z,21.50
2018-12-27T22:46:05.384Z,20.10
2018-12-27T22:48:41.448Z,22.10
2018-12-27T22:51:10.697Z,20.43
2018-12-27T22:53:40.002Z,19.90
2018-12-27T22:56:09.210Z,18.60
2018-12-27T22:58:38.521Z,19.50
2018-12-27T23:01:08.230Z,15.03
2018-12-27T23:03:37.539Z,18.00
2018-12-27T23:06:06.762Z,22.33
2018-12-27T23:08:42.798Z,22.10
2018-12-27T23:11:07.018Z,17.70
2018-12-27T23:13:41.586Z,19.97
2018-12-27T23:16:10.893Z,20.53
2018-12-27T23:18:40.275Z,19.50
2018-12-27T23:21:09.537Z,18.33
2018-12-27T23:23:38.762Z,16.97
2018-12-27T23:26:08.069Z,16.80
2018-12-27T23:28:37.311Z,18.30
2018-12-27T23:31:06.638Z,16.50
2018-12-27T23:33:35.878Z,13.17
2018-12-27T23:36:05.178Z,13.23
2018-12-27T23:38:34.489Z,13.47
2018-12-27T23:41:03.721Z,11.33
2018-12-27T23:43:32.927Z,12.87
2018-12-27T23:46:02.189Z,10.60
2018-12-27T23:48:31.488Z,10.33
2018-12-27T23:51:00.765Z,11.00
2018-12-27T23:53:29.958Z,11.43
2018-12-27T23:55:59.131Z,11.83
2018-12-27T23:58:28.417Z,11.63
